Portada
METAR-TAF:

METAR-TAF

Aeroports :

Calcuta, Índia

latitud: 22-39N, longitud: 088-27E, altitud: 4 m

Observació

L'informe es va fer fa 23 minuts, a les 09:30 UTC
Vent 6 kt del Nord-Est
Temperatura 26°C
Humitat 58%
Pressió 1012 hPa
Visibilitat: 3200 m
Núvols disperses a una alçada de 1800 ft
Cel ennuvolat a una alçada de 10000 ft
calitja

METAR: VECC 270930Z 04006KT 3200 HZ SCT018 BKN100 26/17 Q1012 NOSIG

Hora: 15:23 (09:53 UTC)

Pronòstic

L'informe es va fer fa 1 hora i 53 minuts, a les 08:00 UTC
Pronòstic vàlid del 27 a les 09 UTC al 27 a les 18 UTC
Vent 5 kt del Nord/Nord-Oest
Visibilitat: 3500 m
Núvols disperses a una alçada de 1800 ft
Núvols disperses a una alçada de 10000 ft
calitja
Evolucionant progressivament
l' 27 a les 16 UTC al 27 a les 18 UTC
Visibilitat: 2800 m
calitja

TAF: VECC 270800Z 2709/2718 34005KT 3500 HZ SCT018 SCT100 BECMG 2716/2718 2800 HZ

Observacions i pronòstics meteorològics de més de 4000 aeroports (METAR i TAF).

Les estacions disponibles són els punts grocs i vermells al mapa.

Posi el ratolí al punt desitjat per veure el nom de l'estació.

Feu clic per veure les observacions i els pronòstics meteorològics.

Per canviar el mapa: feu clic els botons verds amb una creu de color negre per apropar; al botó verd amb un guió per allunyar la imatge; o en les fletxes verdes per a mapes adjacents.


METAR-TAF: